Time;durP1;ratioP1;P1;durP2;ratioP2;P2;SDS_P1;SDS_P2;PMS_P1;PMS_P2;Temp;Humidity;BMP_temperature;BMP_pressure;BME280_temperature;BME280_humidity;BME280_pressure;Samples;Min_cycle;Max_cycle;Signal;HPM_P1;HPM_P2
2022/02/28 00:02:05;;;;;;;;;20.50;13.50;;;;;5.85;50.51;102391.72;5080052;27;45269;-63
2022/02/28 00:04:31;;;;;;;;;25.25;19.00;;;;;5.84;50.38;102389.97;5079988;27;45219;-63
2022/02/28 00:06:56;;;;;;;;;26.75;18.75;;;;;5.83;49.83;102389.13;5079880;27;45501;-62
2022/02/28 00:09:23;;;;;;;;;17.50;13.75;;;;;5.83;50.57;102389.13;5073250;28;45433;-63
2022/02/28 00:11:49;;;;;;;;;16.00;14.25;;;;;5.83;50.85;102398.56;5078428;28;46203;-62
2022/02/28 00:14:14;;;;;;;;;15.75;14.00;;;;;5.80;49.89;102397.63;5094191;27;45523;-63
2022/02/28 00:16:40;;;;;;;;;20.00;12.75;;;;;5.80;50.70;102404.50;5080063;28;45317;-64
2022/02/28 00:19:05;;;;;;;;;16.75;13.00;;;;;5.78;50.10;102401.91;5079283;27;46244;-63
2022/02/28 00:21:32;;;;;;;;;15.25;13.00;;;;;5.75;50.66;102399.28;5079710;27;45301;-64
2022/02/28 00:23:57;;;;;;;;;15.25;12.75;;;;;5.76;50.62;102413.03;5079910;27;45208;-64
2022/02/28 00:26:23;;;;;;;;;19.00;13.00;;;;;5.72;50.98;102404.38;5079874;27;45258;-64
2022/02/28 00:28:48;;;;;;;;;15.00;15.00;;;;;5.73;50.59;102421.59;5079453;27;45286;-64
2022/02/28 00:31:13;;;;;;;;;17.25;12.50;;;;;5.73;50.50;102412.97;5079818;27;45231;-66
2022/02/28 00:33:39;;;;;;;;;15.25;15.25;;;;;5.71;51.15;102410.38;5079787;27;45399;-64
2022/02/28 00:36:05;;;;;;;;;12.50;11.00;;;;;5.71;50.69;102412.97;5080180;27;45318;-64
2022/02/28 00:38:31;;;;;;;;;15.00;13.00;;;;;5.70;51.25;102413.81;5078181;28;47744;-64
2022/02/28 00:40:56;;;;;;;;;15.00;12.75;;;;;5.69;50.46;102406.91;5080173;28;45373;-64
2022/02/28 00:43:22;;;;;;;;;10.50;10.00;;;;;5.64;50.81;102403.38;5082333;27;45536;-64
2022/02/28 00:45:47;;;;;;;;;15.25;11.50;;;;;5.68;50.58;102409.44;5081716;27;45489;-63
2022/02/28 00:48:13;;;;;;;;;13.50;11.75;;;;;5.67;50.69;102405.13;5081240;27;45396;-64
2022/02/28 00:50:38;;;;;;;;;22.00;14.75;;;;;5.67;50.63;102405.13;5081993;28;45414;-64
2022/02/28 00:53:04;;;;;;;;;14.75;11.00;;;;;5.68;50.91;102412.03;5081719;27;45805;-61
2022/02/28 00:55:30;;;;;;;;;12.50;11.25;;;;;5.68;50.96;102419.78;5081272;27;45686;-61
2022/02/28 00:57:55;;;;;;;;;14.75;11.00;;;;;5.68;50.92;102412.03;5081249;28;46193;-60
2022/02/28 01:00:21;;;;;;;;;14.50;13.25;;;;;5.67;51.04;102423.19;5082225;27;45358;-61
2022/02/28 01:02:48;;;;;;;;;15.75;12.25;;;;;5.61;50.77;102418.78;5080829;27;45267;-62
2022/02/28 01:05:15;;;;;;;;;15.75;12.75;;;;;5.61;51.11;102423.09;5082621;27;45430;-62
2022/02/28 01:07:40;;;;;;;;;15.00;14.50;;;;;5.58;51.29;102426.44;5082264;27;46397;-62
2022/02/28 01:10:09;;;;;;;;;9.00;9.00;;;;;5.58;51.36;102429.03;5078834;27;45157;-62
2022/02/28 01:12:35;;;;;;;;;16.75;14.50;;;;;5.54;51.80;102427.22;5081004;28;45323;-62
2022/02/28 01:15:01;;;;;;;;;18.00;14.25;;;;;5.52;51.72;102438.34;5082498;27;45295;-62
2022/02/28 01:17:26;;;;;;;;;22.25;15.75;;;;;5.49;51.30;102434.88;5082615;27;46439;-62
2022/02/28 01:19:52;;;;;;;;;19.00;15.25;;;;;5.48;52.02;102432.25;5082431;27;45435;-62
2022/02/28 01:22:17;;;;;;;;;14.75;12.00;;;;;5.43;52.14;102437.34;5081513;28;45297;-61
2022/02/28 01:24:43;;;;;;;;;18.00;15.00;;;;;5.40;52.06;102432.09;5078725;28;45374;-62
2022/02/28 01:27:09;;;;;;;;;18.50;13.50;;;;;5.38;52.45;102431.19;5079936;27;46281;-62
2022/02/28 01:29:35;;;;;;;;;11.00;11.00;;;;;5.37;52.32;102442.34;5080641;27;45497;-61
2022/02/28 01:32:01;;;;;;;;;22.50;13.25;;;;;5.33;52.02;102437.09;5078992;27;45541;-63
2022/02/28 01:34:26;;;;;;;;;16.25;14.75;;;;;5.30;52.33;102442.19;5095153;27;45890;-62
2022/02/28 01:36:52;;;;;;;;;19.25;13.50;;;;;5.27;52.57;102432.69;5079480;28;45541;-62
2022/02/28 01:39:17;;;;;;;;;20.50;15.50;;;;;5.24;52.13;102434.34;5080740;28;45768;-62
2022/02/28 01:41:43;;;;;;;;;22.75;15.50;;;;;5.22;52.67;102425.69;5080969;27;45671;-62
2022/02/28 01:44:09;;;;;;;;;22.50;17.50;;;;;5.18;52.47;102432.47;5080881;28;45381;-62
2022/02/28 01:46:38;;;;;;;;;12.50;12.50;;;;;5.15;52.73;102430.69;5078815;28;46571;-62
2022/02/28 01:49:03;;;;;;;;;15.25;14.25;;;;;5.12;52.88;102424.63;5083274;27;45769;-63
2022/02/28 01:51:29;;;;;;;;;16.00;12.00;;;;;5.07;52.72;102429.69;5080195;28;45197;-63
2022/02/28 01:53:54;;;;;;;;;14.25;13.50;;;;;5.05;53.62;102426.19;5097623;27;45457;-63
2022/02/28 01:56:21;;;;;;;;;16.50;15.50;;;;;5.04;53.32;102427.03;5080400;28;45281;-62
2022/02/28 01:58:47;;;;;;;;;20.00;17.00;;;;;5.01;53.19;102426.09;5082289;27;45363;-62
2022/02/28 02:01:13;;;;;;;;;8.50;6.50;;;;;5.02;52.83;102422.69;5081862;28;45454;-63
2022/02/28 02:03:38;;;;;;;;;20.00;12.00;;;;;4.97;53.60;102417.41;5080635;27;46948;-62
2022/02/28 02:06:09;;;;;;;;;15.75;15.50;;;;;4.93;53.89;102420.75;5081457;27;46023;-62
2022/02/28 02:08:35;;;;;;;;;14.25;11.00;;;;;4.89;54.69;102414.66;5082085;27;45499;-62
2022/02/28 02:11:02;;;;;;;;;13.00;12.00;;;;;4.87;54.62;102421.50;5081816;28;45157;-62
2022/02/28 02:13:30;;;;;;;;;16.00;12.50;;;;;4.85;54.37;102414.56;5071256;27;45333;-62
2022/02/28 02:15:56;;;;;;;;;16.00;11.00;;;;;4.83;53.94;102418.81;5066775;28;47377;-62
2022/02/28 02:18:23;;;;;;;;;21.75;15.50;;;;;4.81;54.04;102407.63;5081618;27;45233;-62
2022/02/28 02:20:49;;;;;;;;;16.00;12.25;;;;;4.79;53.65;102410.13;5081319;27;45268;-62
2022/02/28 02:23:16;;;;;;;;;22.25;18.00;;;;;4.77;53.43;102414.38;5081757;27;45469;-62
2022/02/28 02:25:42;;;;;;;;;20.00;15.00;;;;;4.76;54.25;102398.88;5081595;27;45312;-63
2022/02/28 02:28:10;;;;;;;;;20.00;17.75;;;;;4.73;55.06;102414.28;5081652;27;45873;-62
2022/02/28 02:30:36;;;;;;;;;20.25;13.50;;;;;4.70;54.40;102411.63;5081830;27;45251;-62
2022/02/28 02:33:02;;;;;;;;;18.25;15.75;;;;;4.66;54.72;102402.97;5081525;27;45397;-62
2022/02/28 02:35:28;;;;;;;;;16.75;16.25;;;;;4.64;55.04;102408.94;5080211;28;47294;-62
2022/02/28 02:37:54;;;;;;;;;18.50;14.75;;;;;4.57;54.75;102403.63;5081396;27;45846;-62
2022/02/28 02:40:19;;;;;;;;;19.00;15.50;;;;;4.57;54.91;102400.16;5080027;28;45251;-62
2022/02/28 02:42:45;;;;;;;;;10.50;8.00;;;;;4.53;55.15;102409.53;5081369;27;45458;-62
2022/02/28 02:45:10;;;;;;;;;17.50;11.50;;;;;4.49;54.77;102414.56;5081439;27;46184;-62
2022/02/28 02:47:36;;;;;;;;;18.25;14.50;;;;;4.46;55.01;102412.81;5079613;28;45603;-62
2022/02/28 02:50:04;;;;;;;;;18.25;15.25;;;;;4.42;55.44;102408.41;5079936;28;45524;-63
2022/02/28 02:52:29;;;;;;;;;15.50;15.50;;;;;4.39;54.95;102404.88;5081045;27;45255;-63
2022/02/28 02:54:55;;;;;;;;;14.50;14.50;;;;;4.38;56.12;102410.84;5080084;27;45629;-63
2022/02/28 02:57:20;;;;;;;;;15.50;9.00;;;;;4.36;55.32;102404.78;5077749;28;45800;-63
2022/02/28 02:59:46;;;;;;;;;16.75;14.75;;;;;4.35;55.04;102414.22;5080451;27;45334;-62
2022/02/28 03:02:12;;;;;;;;;16.00;13.25;;;;;4.30;55.78;102404.66;5081001;27;45169;-65
2022/02/28 03:04:37;;;;;;;;;17.50;13.25;;;;;4.28;55.51;102408.06;5079800;27;46503;-67
2022/02/28 03:07:12;;;;;;;;;17.25;14.50;;;;;4.27;55.25;102408.03;5079752;28;45355;-68
2022/02/28 03:09:37;;;;;;;;;14.75;13.00;;;;;4.25;55.42;102404.53;5081201;27;45274;-68
2022/02/28 03:12:03;;;;;;;;;15.00;11.25;;;;;4.25;56.42;102399.41;5079914;27;45401;-68
2022/02/28 03:14:28;;;;;;;;;20.75;15.75;;;;;4.23;55.75;102408.78;5078602;27;45641;-68
2022/02/28 03:16:54;;;;;;;;;17.25;14.25;;;;;4.19;56.19;102401.78;5074935;27;45295;-68
2022/02/28 03:19:19;;;;;;;;;17.67;14.67;;;;;4.19;56.12;102405.25;5078327;27;45351;-64
2022/02/28 03:21:44;;;;;;;;;18.50;14.00;;;;;4.16;56.68;102400.03;5078138;27;45377;-64
2022/02/28 03:24:10;;;;;;;;;16.50;14.00;;;;;4.13;55.95;102407.66;5078112;27;45361;-64
2022/02/28 03:26:35;;;;;;;;;18.50;13.50;;;;;4.11;55.86;102404.19;5076883;28;45940;-64
2022/02/28 03:29:01;;;;;;;;;18.25;15.75;;;;;4.08;57.03;102398.09;5080792;27;45277;-62
2022/02/28 03:31:26;;;;;;;;;18.50;14.75;;;;;4.06;56.35;102395.50;5080554;27;45255;-63
2022/02/28 03:33:52;;;;;;;;;17.50;13.50;;;;;4.05;56.43;102396.31;5079376;28;46983;-63
2022/02/28 03:36:17;;;;;;;;;16.75;12.75;;;;;4.00;56.87;102397.00;5080347;27;45390;-63
2022/02/28 03:38:42;;;;;;;;;18.25;14.75;;;;;3.97;56.97;102384.94;5080937;27;45329;-63
2022/02/28 03:41:08;;;;;;;;;15.25;12.25;;;;;3.98;56.69;102397.84;5080152;27;45466;-63
2022/02/28 03:43:33;;;;;;;;;20.25;13.25;;;;;3.95;57.30;102391.75;5080417;27;45319;-63
2022/02/28 03:45:58;;;;;;;;;14.50;14.00;;;;;3.94;56.82;102388.31;5078030;28;45329;-63
2022/02/28 03:48:24;;;;;;;;;16.75;16.25;;;;;3.93;56.72;102388.28;5078514;28;45234;-64
2022/02/28 03:50:49;;;;;;;;;17.50;17.50;;;;;3.92;57.47;102402.84;5080343;27;45495;-64
2022/02/28 03:53:14;;;;;;;;;16.75;14.00;;;;;3.90;56.42;102386.50;5079851;27;45361;-64
2022/02/28 03:55:40;;;;;;;;;15.25;10.50;;;;;3.87;57.29;102394.13;5080132;27;45301;-65
2022/02/28 03:58:05;;;;;;;;;14.50;11.25;;;;;3.86;57.60;102389.81;5080287;27;45416;-65
2022/02/28 04:00:30;;;;;;;;;20.25;13.75;;;;;3.84;57.70;102388.91;5080184;27;45321;-65
2022/02/28 04:02:56;;;;;;;;;18.00;12.25;;;;;3.85;57.55;102392.34;5080029;28;45407;-69
2022/02/28 04:05:21;;;;;;;;;19.25;16.75;;;;;3.84;56.95;102394.06;5080202;27;45346;-68
2022/02/28 04:07:47;;;;;;;;;17.00;11.00;;;;;3.82;57.70;102388.00;5079976;27;45479;-68
2022/02/28 04:10:14;;;;;;;;;12.75;11.50;;;;;3.82;57.66;102389.72;5079922;27;45310;-68
2022/02/28 04:12:39;;;;;;;;;15.00;14.25;;;;;3.80;57.67;102399.94;5079758;27;45398;-68
2022/02/28 04:15:05;;;;;;;;;15.75;11.00;;;;;3.79;57.77;102393.03;5079829;27;45229;-63
2022/02/28 04:17:31;;;;;;;;;14.00;11.75;;;;;3.77;57.35;102394.72;5079399;28;45242;-62
2022/02/28 04:19:56;;;;;;;;;17.75;13.75;;;;;3.76;58.28;102380.09;5072041;27;45385;-61
2022/02/28 04:22:23;;;;;;;;;15.00;12.25;;;;;3.74;57.77;102397.19;5079699;27;45340;-62
2022/02/28 04:24:49;;;;;;;;;18.50;12.50;;;;;3.74;58.09;102399.78;5079746;28;45330;-62
2022/02/28 04:27:14;;;;;;;;;13.25;10.50;;;;;3.72;57.71;102400.56;5080313;27;45340;-62
2022/02/28 04:29:40;;;;;;;;;17.25;12.00;;;;;3.71;58.43;102402.25;5079983;27;45235;-61
2022/02/28 04:32:06;;;;;;;;;13.75;12.25;;;;;3.70;57.83;102408.25;5079501;27;45413;-61
2022/02/28 04:34:32;;;;;;;;;16.75;14.00;;;;;3.68;58.39;102402.19;5079415;27;45328;-61
2022/02/28 04:36:58;;;;;;;;;14.50;13.25;;;;;3.66;58.33;102398.72;5079931;28;45175;-61
2022/02/28 04:39:24;;;;;;;;;17.25;14.50;;;;;3.65;58.47;102402.09;5079248;27;45231;-61
2022/02/28 04:41:50;;;;;;;;;16.75;13.75;;;;;3.62;58.59;102394.31;5079711;27;48064;-61
2022/02/28 04:44:15;;;;;;;;;18.00;17.50;;;;;3.62;58.75;102404.59;5079348;27;45207;-61
2022/02/28 04:46:40;;;;;;;;;19.50;16.00;;;;;3.61;58.26;102406.28;5074521;28;45529;-61
2022/02/28 04:49:06;;;;;;;;;17.50;14.50;;;;;3.60;58.89;102409.69;5071214;28;45442;-61
2022/02/28 04:51:31;;;;;;;;;14.00;10.50;;;;;3.58;58.59;102405.31;5079260;27;45378;-61
2022/02/28 04:53:56;;;;;;;;;14.50;11.75;;;;;3.57;58.46;102403.56;5079322;27;45204;-61
2022/02/28 04:56:22;;;;;;;;;19.75;14.00;;;;;3.58;58.10;102405.31;5079511;27;45336;-61
2022/02/28 04:58:47;;;;;;;;;22.00;20.00;;;;;3.56;58.98;102407.84;5079370;27;45443;-62
2022/02/28 05:01:13;;;;;;;;;14.25;14.25;;;;;3.54;58.72;102412.06;5077644;28;47313;-62
2022/02/28 05:03:38;;;;;;;;;22.00;16.75;;;;;3.54;58.82;102408.63;5079382;27;45307;-62
2022/02/28 05:06:03;;;;;;;;;16.25;13.00;;;;;3.53;58.68;102419.75;5079408;27;45361;-62
2022/02/28 05:08:29;;;;;;;;;20.00;17.50;;;;;3.51;58.83;102409.44;5079422;27;45386;-62
2022/02/28 05:10:54;;;;;;;;;27.00;14.50;;;;;3.48;58.89;102419.63;5078732;27;45373;-61
2022/02/28 05:13:19;;;;;;;;;20.00;15.75;;;;;3.49;58.64;102425.63;5079334;27;45303;-61
2022/02/28 05:15:45;;;;;;;;;17.33;14.33;;;;;3.48;59.07;102431.59;5078920;27;45326;-61
2022/02/28 05:18:10;;;;;;;;;16.75;16.25;;;;;3.47;58.98;102429.88;5079349;27;45430;-61
2022/02/28 05:20:35;;;;;;;;;21.50;14.25;;;;;3.47;58.92;102425.59;5073523;27;45834;-61
2022/02/28 05:23:01;;;;;;;;;21.00;15.75;;;;;3.48;59.08;102445.31;5077856;28;45314;-61
2022/02/28 05:25:27;;;;;;;;;18.50;15.00;;;;;3.47;58.90;102438.44;5078466;27;45342;-61
2022/02/28 05:27:53;;;;;;;;;15.50;13.00;;;;;3.46;59.04;102438.41;5081132;27;45219;-61
2022/02/28 05:30:18;;;;;;;;;16.75;11.00;;;;;3.44;58.68;102435.78;5082045;27;45401;-61
2022/02/28 05:32:44;;;;;;;;;18.50;16.50;;;;;3.43;59.14;102433.19;5081306;28;45676;-61
2022/02/28 05:35:11;;;;;;;;;17.00;16.75;;;;;3.42;59.46;102439.16;5082427;27;45521;-68
2022/02/28 05:37:37;;;;;;;;;20.25;17.50;;;;;3.41;59.38;102437.41;5082568;27;45265;-68
2022/02/28 05:40:04;;;;;;;;;25.75;17.25;;;;;3.39;59.89;102445.03;5081786;27;45374;-67
2022/02/28 05:42:29;;;;;;;;;21.00;17.00;;;;;3.36;59.61;102440.69;5082250;27;45326;-65
2022/02/28 05:44:55;;;;;;;;;16.75;15.25;;;;;3.37;59.59;102439.00;5081875;27;45316;-63
2022/02/28 05:47:20;;;;;;;;;20.50;13.25;;;;;3.35;59.50;102438.94;5081473;27;45279;-64
2022/02/28 05:49:45;;;;;;;;;17.25;12.00;;;;;3.34;59.32;102436.34;5081923;28;45476;-63
2022/02/28 05:52:11;;;;;;;;;20.00;14.00;;;;;3.33;59.94;102450.00;5081942;27;45409;-63
2022/02/28 05:54:39;;;;;;;;;17.25;14.00;;;;;3.28;60.01;102442.16;5081377;27;45432;-63
2022/02/28 05:57:05;;;;;;;;;19.50;14.50;;;;;3.29;59.89;102448.19;5081991;27;45221;-63
2022/02/28 05:59:31;;;;;;;;;17.00;15.50;;;;;3.29;60.44;102455.88;5081552;27;45389;-63
2022/02/28 06:01:56;;;;;;;;;22.75;16.75;;;;;3.29;60.14;102461.03;5080557;28;45661;-63
2022/02/28 06:04:22;;;;;;;;;22.25;15.25;;;;;3.28;60.42;102456.72;5081685;27;45506;-63
2022/02/28 06:06:47;;;;;;;;;31.25;20.50;;;;;3.26;60.08;102464.38;5081843;27;45643;-63
2022/02/28 06:09:12;;;;;;;;;32.75;20.25;;;;;3.24;60.57;102471.19;5081475;27;45428;-63
2022/02/28 06:11:38;;;;;;;;;18.00;15.75;;;;;3.24;60.06;102460.91;5081925;27;45319;-63
2022/02/28 06:14:03;;;;;;;;;17.25;14.25;;;;;3.24;61.45;102466.03;5081301;27;45271;-63
2022/02/28 06:16:28;;;;;;;;;21.75;19.50;;;;;3.22;61.26;102467.69;5081543;27;45515;-63
2022/02/28 06:18:54;;;;;;;;;23.25;16.75;;;;;3.23;61.05;102466.88;5081036;28;46239;-62
2022/02/28 06:21:20;;;;;;;;;18.00;16.25;;;;;3.22;60.93;102466.81;5081102;28;45457;-62
2022/02/28 06:23:45;;;;;;;;;22.50;16.75;;;;;3.20;60.34;102458.16;5075289;27;45473;-62
2022/02/28 06:26:11;;;;;;;;;21.00;17.00;;;;;3.19;60.57;102462.44;5081020;27;45348;-62
2022/02/28 06:28:37;;;;;;;;;14.00;11.25;;;;;3.20;60.64;102458.16;5080929;27;46212;-62
2022/02/28 06:31:04;;;;;;;;;23.00;19.00;;;;;3.19;60.53;102457.28;5081383;27;45226;-62
2022/02/28 06:33:30;;;;;;;;;17.00;15.25;;;;;3.17;60.59;102452.94;5081218;27;45181;-62
2022/02/28 06:35:56;;;;;;;;;16.50;16.50;;;;;3.20;60.94;102469.31;5081446;27;45449;-60
2022/02/28 06:38:22;;;;;;;;;29.75;17.00;;;;;3.19;60.86;102464.13;5081074;28;46317;-63
2022/02/28 06:40:48;;;;;;;;;19.00;17.25;;;;;3.22;60.88;102472.81;5080747;28;45753;-62
2022/02/28 06:43:15;;;;;;;;;22.25;16.00;;;;;3.20;60.99;102471.88;5081004;27;45326;-63
2022/02/28 06:45:41;;;;;;;;;19.50;18.25;;;;;3.23;60.89;102477.13;5080763;28;45261;-63
2022/02/28 06:48:06;;;;;;;;;25.25;22.50;;;;;3.23;60.78;102479.72;5080533;27;45451;-60
2022/02/28 06:50:32;;;;;;;;;33.50;24.75;;;;;3.23;60.49;102478.84;5080921;28;45228;-61
2022/02/28 06:52:58;;;;;;;;;21.50;17.25;;;;;3.26;61.21;102479.78;5080220;27;45294;-61
2022/02/28 06:55:23;;;;;;;;;23.50;16.75;;;;;3.25;60.91;102475.47;5080274;27;45546;-61
2022/02/28 06:57:49;;;;;;;;;22.25;20.25;;;;;3.27;60.75;102471.25;5079272;28;47917;-63
2022/02/28 07:00:14;;;;;;;;;27.25;17.50;;;;;3.29;60.71;102472.19;5080601;27;45400;-63
2022/02/28 07:02:41;;;;;;;;;23.25;18.50;;;;;3.33;61.06;102476.56;5080586;27;45472;-63
2022/02/28 07:05:06;;;;;;;;;20.00;17.25;;;;;3.35;60.80;102481.75;5080868;27;45227;-62
2022/02/28 07:07:32;;;;;;;;;21.00;19.25;;;;;3.36;60.61;102475.78;5080413;27;45441;-63
2022/02/28 07:09:58;;;;;;;;;24.50;19.50;;;;;3.41;61.55;102478.53;5079296;28;45464;-63
2022/02/28 07:12:24;;;;;;;;;28.00;22.00;;;;;3.43;61.00;102477.75;5079204;28;45276;-64
2022/02/28 07:14:49;;;;;;;;;26.00;23.75;;;;;3.46;61.29;102475.25;5080843;27;45211;-62
2022/02/28 07:17:14;;;;;;;;;19.25;17.75;;;;;3.52;60.96;102477.13;5079971;27;46545;-62
2022/02/28 07:19:40;;;;;;;;;24.00;20.50;;;;;3.59;60.81;102477.34;5080113;27;45358;-61
2022/02/28 07:22:05;;;;;;;;;24.50;20.00;;;;;3.68;60.46;102484.47;5079855;28;45317;-61
2022/02/28 07:24:31;;;;;;;;;29.25;24.25;;;;;3.76;60.54;102487.22;5080180;28;45320;-62
2022/02/28 07:26:56;;;;;;;;;32.50;21.00;;;;;3.83;60.02;102484.91;5068743;28;46225;-62
2022/02/28 07:29:22;;;;;;;;;22.00;17.25;;;;;3.90;60.31;102483.34;5080125;27;45286;-62
2022/02/28 07:31:47;;;;;;;;;24.00;22.50;;;;;3.99;59.76;102486.16;5078570;28;45264;-62
2022/02/28 07:34:12;;;;;;;;;29.25;21.50;;;;;4.08;59.47;102491.59;5080347;27;45386;-62
2022/02/28 07:36:38;;;;;;;;;21.25;20.25;;;;;4.16;59.31;102502.06;5079771;27;45348;-63
2022/02/28 07:39:04;;;;;;;;;23.00;18.50;;;;;4.21;59.38;102497.94;5080223;27;45473;-63
2022/02/28 07:41:30;;;;;;;;;24.50;19.75;;;;;4.28;59.79;102504.97;5095317;27;45357;-61
2022/02/28 07:43:55;;;;;;;;;24.25;22.50;;;;;4.33;58.82;102499.94;5080233;27;45211;-62
2022/02/28 07:46:21;;;;;;;;;25.25;21.00;;;;;4.44;59.01;102504.56;5077568;28;46970;-62
2022/02/28 07:48:47;;;;;;;;;28.75;24.00;;;;;4.51;58.80;102514.19;5079894;28;45348;-63
2022/02/28 07:51:13;;;;;;;;;30.25;23.00;;;;;4.60;58.75;102508.38;5079320;27;45318;-63
2022/02/28 07:53:38;;;;;;;;;24.50;20.75;;;;;4.66;58.15;102517.97;5079777;27;45466;-62
2022/02/28 07:56:04;;;;;;;;;30.00;25.50;;;;;4.73;58.77;102514.72;5079178;27;46675;-61
2022/02/28 07:58:29;;;;;;;;;45.75;35.00;;;;;4.79;59.03;102520.00;5079608;28;45365;-61
2022/02/28 08:00:55;;;;;;;;;26.25;19.25;;;;;4.88;59.00;102515.09;5077699;28;45520;-61
2022/02/28 08:03:20;;;;;;;;;29.50;25.00;;;;;4.97;58.49;102515.31;5079147;27;45503;-61
2022/02/28 08:05:46;;;;;;;;;30.25;22.50;;;;;5.06;58.42;102504.38;5078974;28;45423;-60
2022/02/28 08:08:11;;;;;;;;;29.75;23.50;;;;;5.15;58.58;102500.28;5079075;28;45456;-60
2022/02/28 08:10:36;;;;;;;;;34.00;27.50;;;;;5.29;58.11;102499.72;5079113;28;45485;-60
2022/02/28 08:13:03;;;;;;;;;31.75;26.75;;;;;5.41;58.44;102493.16;5079936;27;45526;-60
2022/02/28 08:15:28;;;;;;;;;28.25;21.00;;;;;5.49;57.27;102486.44;5082770;27;45282;-60
2022/02/28 08:17:54;;;;;;;;;24.50;20.50;;;;;5.58;57.18;102485.75;5079478;27;45293;-60
2022/02/28 08:20:19;;;;;;;;;22.75;13.50;;;;;5.65;56.87;102489.34;5077417;28;45653;-60
2022/02/28 08:22:44;;;;;;;;;21.50;15.00;;;;;5.73;56.41;102485.22;5079537;27;45540;-61
2022/02/28 08:25:10;;;;;;;;;17.00;15.50;;;;;5.82;55.87;102490.56;5077606;28;47770;-61
2022/02/28 08:27:36;;;;;;;;;26.25;22.25;;;;;5.90;56.05;102488.16;5079447;27;45271;-61
2022/02/28 08:30:03;;;;;;;;;36.50;22.75;;;;;5.98;55.50;102479.72;5075869;27;46289;-61
2022/02/28 08:32:29;;;;;;;;;27.25;21.50;;;;;6.04;55.14;102482.44;5079412;27;45564;-62
2022/02/28 08:34:54;;;;;;;;;22.50;19.75;;;;;6.15;54.20;102485.22;5079384;27;45404;-61
2022/02/28 08:37:19;;;;;;;;;22.75;18.50;;;;;6.25;53.93;102481.09;5079476;27;45479;-65
2022/02/28 08:39:45;;;;;;;;;22.00;17.00;;;;;6.36;54.60;102479.56;5079243;28;45259;-61
2022/02/28 08:42:10;;;;;;;;;36.50;29.50;;;;;6.44;53.57;102478.00;5078336;28;45620;-62
2022/02/28 08:44:36;;;;;;;;;23.75;19.75;;;;;6.49;53.72;102478.94;5079424;27;45331;-61
2022/02/28 08:47:01;;;;;;;;;40.50;22.50;;;;;6.56;53.58;102490.25;5078722;27;45279;-60
2022/02/28 08:49:27;;;;;;;;;27.25;22.75;;;;;6.63;52.90;102486.94;5079092;28;45274;-60
2022/02/28 08:51:54;;;;;;;;;17.50;14.25;;;;;6.74;52.91;102487.09;5079604;27;45246;-60
2022/02/28 08:54:20;;;;;;;;;18.00;16.25;;;;;6.83;52.65;102482.09;5078344;27;46579;-60
2022/02/28 08:56:45;;;;;;;;;19.25;16.75;;;;;6.91;52.24;102488.25;5079622;27;45225;-60
2022/02/28 08:59:11;;;;;;;;;22.75;17.00;;;;;6.94;52.29;102483.97;5079481;27;45306;-62
2022/02/28 09:01:36;;;;;;;;;25.00;18.50;;;;;7.05;51.57;102484.16;5079601;27;45283;-60
2022/02/28 09:04:02;;;;;;;;;22.00;17.00;;;;;7.15;51.19;102482.56;5082291;27;46265;-59
2022/02/28 09:06:27;;;;;;;;;23.25;19.50;;;;;7.25;51.22;102476.69;5080862;28;45500;-58
2022/02/28 09:08:53;;;;;;;;;22.00;19.75;;;;;7.34;51.39;102479.38;5081883;28;45373;-59
2022/02/28 09:11:19;;;;;;;;;19.00;14.00;;;;;7.39;50.49;102482.91;5082069;27;45420;-59
2022/02/28 09:13:45;;;;;;;;;22.75;17.25;;;;;7.41;50.24;102477.75;5082062;28;46506;-67
2022/02/28 09:16:10;;;;;;;;;21.50;15.75;;;;;7.51;50.15;102483.06;5098166;27;45906;-65
2022/02/28 09:18:36;;;;;;;;;18.75;15.50;;;;;7.59;50.42;102489.22;5082719;27;45403;-63
2022/02/28 09:21:01;;;;;;;;;21.50;18.50;;;;;7.69;50.16;102489.34;5081789;27;45547;-65
2022/02/28 09:23:27;;;;;;;;;22.00;17.25;;;;;7.80;49.42;102485.16;5081943;28;45467;-65
2022/02/28 09:25:52;;;;;;;;;10.25;10.25;;;;;7.89;49.88;102490.44;5081267;27;45338;-60
2022/02/28 09:28:18;;;;;;;;;19.00;16.75;;;;;7.96;50.04;102479.31;5081893;27;45355;-60
2022/02/28 09:30:44;;;;;;;;;21.00;17.75;;;;;8.01;48.96;102493.19;5094926;27;45309;-63
2022/02/28 09:33:10;;;;;;;;;26.00;18.50;;;;;8.10;48.83;102498.47;5076318;28;45311;-61
2022/02/28 09:35:35;;;;;;;;;26.00;20.50;;;;;8.13;48.40;102493.31;5082186;28;45207;-61
2022/02/28 09:38:01;;;;;;;;;25.75;18.75;;;;;8.18;48.17;102507.16;5082198;28;45230;-60
2022/02/28 09:40:29;;;;;;;;;20.75;15.25;;;;;8.21;47.62;102508.94;5082265;27;45257;-60
2022/02/28 09:43:00;;;;;;;;;15.25;15.00;;;;;8.29;47.56;102509.00;5081993;28;46502;-61
2022/02/28 09:45:27;;;;;;;;;22.00;19.00;;;;;8.34;47.44;102513.41;5080753;28;45355;-71
2022/02/28 09:47:54;;;;;;;;;17.25;16.75;;;;;8.48;47.32;102517.03;5081772;28;45356;-61
2022/02/28 09:50:20;;;;;;;;;22.50;16.75;;;;;8.54;47.53;102506.69;5080789;28;45654;-67
2022/02/28 09:52:45;;;;;;;;;24.25;19.00;;;;;8.63;47.08;102507.66;5080953;28;45433;-67
2022/02/28 09:55:13;;;;;;;;;22.00;18.75;;;;;8.74;46.91;102508.59;5081697;27;45273;-67
2022/02/28 09:57:47;;;;;;;;;24.75;19.00;;;;;8.91;46.59;102506.16;5082012;27;45253;-78
2022/02/28 10:00:18;;;;;;;;;27.25;19.75;;;;;9.01;46.56;102506.25;5081762;27;45239;-66
2022/02/28 10:02:44;;;;;;;;;18.50;18.50;;;;;9.10;46.59;102502.84;5081649;27;45516;-73
2022/02/28 10:05:09;;;;;;;;;16.00;12.75;;;;;9.21;46.31;102500.28;5081313;27;45252;-69
2022/02/28 10:07:54;;;;;;;;;17.75;16.00;;;;;9.31;46.33;102500.38;5079243;27;45421;-68
2022/02/28 10:10:20;;;;;;;;;16.00;15.00;;;;;9.46;46.11;102497.00;5079144;27;45423;-67
2022/02/28 10:12:47;;;;;;;;;20.00;16.25;;;;;9.63;45.53;102489.31;5079601;27;46302;-63
2022/02/28 10:15:15;;;;;;;;;24.00;19.75;;;;;9.97;45.41;102490.28;5095199;27;45892;-67
2022/02/28 10:17:45;;;;;;;;;18.00;16.75;;;;;11.27;45.61;102501.66;5078950;28;45449;-74
2022/02/28 10:20:17;;;;;;;;;21.75;17.00;;;;;11.75;43.45;102503.22;5078158;27;45726;-66
2022/02/28 10:22:43;;;;;;;;;27.00;23.75;;;;;11.74;43.48;102511.91;5080123;27;45466;-69
2022/02/28 10:25:09;;;;;;;;;20.25;19.25;;;;;11.64;42.32;102509.38;5079786;28;45267;-66
2022/02/28 10:27:34;;;;;;;;;17.25;16.00;;;;;11.48;43.16;102512.00;5081592;28;45537;-70
2022/02/28 10:30:00;;;;;;;;;26.75;19.75;;;;;11.61;42.79;102518.03;5089500;27;45518;-68
2022/02/28 10:32:27;;;;;;;;;22.75;19.00;;;;;11.86;42.51;102519.72;5080816;27;45346;-65
2022/02/28 10:37:45;;;;;;;;;22.00;18.25;;;;;15.99;43.20;102523.19;5081098;28;45416;-64
2022/02/28 10:40:11;;;;;;;;;15.75;14.25;;;;;17.76;38.66;102522.25;5081270;28;45493;-66
2022/02/28 10:42:47;;;;;;;;;24.00;17.25;;;;;17.40;36.19;102515.38;5080834;27;45427;-63
2022/02/28 10:45:25;;;;;;;;;21.25;18.25;;;;;16.59;35.44;102504.31;5079663;28;45844;-64
2022/02/28 10:47:52;;;;;;;;;26.50;20.75;;;;;15.79;36.47;102503.50;5080636;27;45296;-60
2022/02/28 10:50:38;;;;;;;;;22.75;20.25;;;;;15.46;36.60;102506.78;5089416;27;45876;-72
2022/02/28 10:53:10;;;;;;;;;17.75;16.25;;;;;15.69;36.71;102501.09;5084184;27;47580;-74
2022/02/28 10:55:36;;;;;;;;;22.25;16.25;;;;;15.91;36.02;102504.13;5124096;27;45255;-62
2022/02/28 10:58:05;;;;;;;;;20.50;17.00;;;;;15.57;34.96;102510.03;5091748;27;45461;-62
2022/02/28 11:00:30;;;;;;;;;25.00;17.50;;;;;16.75;36.33;102510.09;5078946;27;45421;-61
2022/02/28 11:03:02;;;;;;;;;17.75;17.00;;;;;18.47;33.85;102506.03;5077942;28;45342;-66
2022/02/28 11:05:28;;;;;;;;;21.25;16.75;;;;;18.60;32.79;102508.25;5078576;27;45814;-66
2022/02/28 11:07:53;;;;;;;;;13.75;12.00;;;;;17.83;32.08;102513.28;5078534;28;45401;-61
2022/02/28 11:10:20;;;;;;;;;24.25;19.00;;;;;18.49;33.08;102512.13;5078266;27;45422;-60
2022/02/28 11:12:49;;;;;;;;;18.50;14.00;;;;;19.14;32.21;102511.69;5078078;28;45375;-67
2022/02/28 11:15:20;;;;;;;;;18.00;18.00;;;;;18.71;31.63;102503.53;5077546;28;45610;-61